createdAt,value
2022-12-25T00:01:36.890Z,98017.03
2022-12-25T00:04:07.376Z,98007.47
2022-12-25T00:06:37.881Z,98001.78
2022-12-25T00:09:11.062Z,98005.06
2022-12-25T00:11:41.560Z,98000.59
2022-12-25T00:14:11.935Z,97992.81
2022-12-25T00:16:42.414Z,97989.41
2022-12-25T00:19:12.878Z,97990.00
2022-12-25T00:21:43.341Z,97988.00
2022-12-25T00:24:16.343Z,97978.38
2022-12-25T00:26:46.689Z,97978.97
2022-12-25T00:29:16.981Z,97991.97
2022-12-25T00:31:47.405Z,97988.34
2022-12-25T00:34:17.924Z,97990.63
2022-12-25T00:36:48.333Z,97978.72
2022-12-25T00:39:21.395Z,97982.53
2022-12-25T00:42:04.124Z,97985.50
2022-12-25T00:44:34.567Z,97983.06
2022-12-25T00:47:06.220Z,97977.28
2022-12-25T00:49:36.848Z,97969.59
2022-12-25T00:52:07.867Z,97967.59
2022-12-25T00:54:41.335Z,97972.59
2022-12-25T00:57:11.661Z,97976.84
2022-12-25T00:59:42.034Z,97977.75
2022-12-25T01:02:33.424Z,97967.16
2022-12-25T01:05:04.916Z,97980.50
2022-12-25T01:07:35.248Z,97983.56
2022-12-25T01:10:22.581Z,97977.94
2022-12-25T01:12:54.289Z,97972.16
2022-12-25T01:15:24.678Z,97978.16
2022-12-25T01:17:55.218Z,97984.84
2022-12-25T01:20:25.615Z,97992.06
2022-12-25T01:22:56.623Z,97995.56
2022-12-25T01:25:29.593Z,97993.28
2022-12-25T01:28:00.192Z,97989.84
2022-12-25T01:30:31.711Z,98002.88
2022-12-25T01:33:02.444Z,98010.25
2022-12-25T01:35:32.889Z,98010.50
2022-12-25T01:38:03.356Z,98009.31
2022-12-25T01:40:37.583Z,98003.28
2022-12-25T01:43:13.979Z,98012.31
2022-12-25T01:45:49.667Z,98022.13
2022-12-25T01:48:23.253Z,98023.88
2022-12-25T01:50:58.980Z,98026.19
2022-12-25T01:53:30.061Z,98025.94
2022-12-25T01:56:06.858Z,98018.00
2022-12-25T01:58:37.743Z,98011.16
2022-12-25T02:01:09.996Z,98011.81
2022-12-25T02:03:42.530Z,98009.13
2022-12-25T02:06:13.304Z,98017.38
2022-12-25T02:08:44.834Z,98027.88
2022-12-25T02:11:37.724Z,98026.47
2022-12-25T02:14:08.084Z,98027.50
2022-12-25T02:16:57.414Z,98034.13
2022-12-25T02:19:55.207Z,98037.47
2022-12-25T02:22:37.854Z,98030.16
2022-12-25T02:25:32.302Z,98019.47
2022-12-25T02:28:17.245Z,98033.34
2022-12-25T02:30:54.838Z,98028.09
2022-12-25T02:33:46.258Z,98033.16
2022-12-25T02:36:24.878Z,98029.63
2022-12-25T02:39:23.421Z,98039.34
2022-12-25T02:41:57.816Z,98028.56
2022-12-25T02:44:45.768Z,98030.44
2022-12-25T02:47:28.463Z,98032.56
2022-12-25T02:50:13.111Z,98032.13
2022-12-25T02:52:57.847Z,98032.25
2022-12-25T02:55:48.144Z,98035.19
2022-12-25T02:58:36.369Z,98049.63
2022-12-25T03:01:41.367Z,98051.50
2022-12-25T03:04:30.940Z,98041.81
2022-12-25T03:07:12.689Z,98036.97
2022-12-25T03:10:02.906Z,98025.94
2022-12-25T03:12:49.281Z,98020.25
2022-12-25T03:15:33.935Z,98008.78
2022-12-25T03:18:11.341Z,98011.41
2022-12-25T03:20:54.374Z,98015.59
2022-12-25T03:23:43.700Z,98025.72
2022-12-25T03:26:26.400Z,98030.88
2022-12-25T03:28:56.860Z,98030.44
2022-12-25T03:31:34.061Z,98027.69
2022-12-25T03:34:45.296Z,98029.88
2022-12-25T03:37:45.563Z,98025.19
2022-12-25T03:40:39.351Z,98034.44
2022-12-25T03:43:30.630Z,98041.69
2022-12-25T03:46:19.790Z,98044.34
2022-12-25T03:49:08.089Z,98044.25
2022-12-25T03:51:56.120Z,98032.56
2022-12-25T03:54:43.362Z,98034.22
2022-12-25T03:57:26.967Z,98037.50
2022-12-25T04:00:09.614Z,98029.78
2022-12-25T04:02:53.429Z,98037.28
2022-12-25T04:05:36.129Z,98044.00
2022-12-25T04:08:21.324Z,98045.31
2022-12-25T04:11:04.337Z,98038.59
2022-12-25T04:13:46.983Z,98044.00
2022-12-25T04:16:29.689Z,98049.63
2022-12-25T04:19:12.387Z,98038.06
2022-12-25T04:21:55.037Z,98035.09
2022-12-25T04:24:40.317Z,98028.94
2022-12-25T04:27:23.010Z,98026.84
2022-12-25T04:30:05.678Z,98033.22
2022-12-25T04:32:48.505Z,98040.28
2022-12-25T04:35:31.425Z,98036.22
2022-12-25T04:38:01.735Z,98037.53
2022-12-25T04:40:34.763Z,98041.50
2022-12-25T04:43:05.075Z,98055.03
2022-12-25T04:45:35.323Z,98039.72
2022-12-25T04:48:05.677Z,98042.13
2022-12-25T04:50:36.038Z,98045.78
2022-12-25T04:53:06.408Z,98049.19
2022-12-25T04:55:39.386Z,98043.56
2022-12-25T04:58:10.283Z,98044.25
2022-12-25T05:00:40.825Z,98054.56
2022-12-25T05:03:11.228Z,98055.25
2022-12-25T05:05:43.423Z,98062.63
2022-12-25T05:08:13.799Z,98055.78
2022-12-25T05:10:46.759Z,98059.09
2022-12-25T05:13:17.208Z,98061.75
2022-12-25T05:15:47.686Z,98059.78
2022-12-25T05:18:18.106Z,98060.06
2022-12-25T05:20:56.004Z,98053.34
2022-12-25T05:23:26.460Z,98061.81
2022-12-25T05:25:59.825Z,98052.50
2022-12-25T05:28:30.166Z,98049.72
2022-12-25T05:31:00.728Z,98046.19
2022-12-25T05:33:31.173Z,98044.09
2022-12-25T05:36:01.675Z,98038.38
2022-12-25T05:38:32.045Z,98041.06
2022-12-25T05:41:05.179Z,98040.38
2022-12-25T05:43:35.672Z,98039.94
2022-12-25T05:46:09.377Z,98042.91
2022-12-25T05:48:41.141Z,98036.50
2022-12-25T05:51:14.671Z,98028.72
2022-12-25T05:53:46.428Z,98025.63
2022-12-25T05:56:19.500Z,98023.75
2022-12-25T05:58:49.843Z,98013.19
2022-12-25T06:01:23.428Z,98005.38
2022-12-25T06:03:54.122Z,98015.38
2022-12-25T06:06:24.661Z,98008.44
2022-12-25T06:08:57.658Z,98004.03
2022-12-25T06:11:30.608Z,97995.97
2022-12-25T06:14:01.337Z,97994.34
2022-12-25T06:16:37.608Z,97996.63
2022-12-25T06:19:08.522Z,97994.97
2022-12-25T06:21:38.979Z,97989.81
2022-12-25T06:24:13.397Z,97991.78
2022-12-25T06:26:49.115Z,97991.88
2022-12-25T06:29:19.830Z,97995.94
2022-12-25T06:31:50.282Z,98002.31
2022-12-25T06:34:20.687Z,97995.97
2022-12-25T06:36:51.012Z,98003.03
2022-12-25T06:39:21.563Z,97995.00
2022-12-25T06:41:54.739Z,98002.97
2022-12-25T06:44:25.197Z,98012.19
2022-12-25T06:46:56.898Z,98016.47
2022-12-25T06:49:27.839Z,98020.97
2022-12-25T06:51:58.383Z,98018.44
2022-12-25T06:54:28.917Z,98020.25
2022-12-25T06:57:01.949Z,98021.53
2022-12-25T06:59:32.360Z,98017.28
2022-12-25T07:02:03.206Z,98012.06
2022-12-25T07:04:39.094Z,98013.94
2022-12-25T07:07:11.857Z,98011.31
2022-12-25T07:09:42.756Z,98012.19
2022-12-25T07:12:23.588Z,98019.34
2022-12-25T07:14:58.196Z,98011.53
2022-12-25T07:17:28.539Z,98011.19
2022-12-25T07:19:58.923Z,98022.84
2022-12-25T07:22:31.978Z,98034.00
2022-12-25T07:25:02.336Z,98029.50
2022-12-25T07:27:35.315Z,98043.03
2022-12-25T07:30:05.797Z,98043.13
2022-12-25T07:32:36.221Z,98054.59
2022-12-25T07:35:07.793Z,98052.94
2022-12-25T07:37:38.106Z,98054.59
2022-12-25T07:40:10.717Z,98048.09
2022-12-25T07:42:43.677Z,98054.78
2022-12-25T07:45:14.879Z,98061.28
2022-12-25T07:47:44.897Z,98060.84
2022-12-25T07:50:15.238Z,98058.53
2022-12-25T07:52:47.059Z,98065.03
2022-12-25T07:55:17.576Z,98067.56
2022-12-25T07:57:50.653Z,98057.34
2022-12-25T08:00:22.822Z,98059.66
2022-12-25T08:02:53.529Z,98062.97
2022-12-25T08:05:24.158Z,98063.59
2022-12-25T08:07:58.182Z,98073.34
2022-12-25T08:10:28.931Z,98069.31
2022-12-25T08:13:02.092Z,98065.66
2022-12-25T08:15:34.237Z,98066.63
2022-12-25T08:18:04.502Z,98049.13
2022-12-25T08:20:34.881Z,98041.72
2022-12-25T08:23:05.340Z,98034.59
2022-12-25T08:25:36.345Z,98044.50
2022-12-25T08:28:09.393Z,98041.13
2022-12-25T08:30:41.987Z,98034.56
2022-12-25T08:33:12.571Z,98034.94
2022-12-25T08:35:42.912Z,98035.41
2022-12-25T08:38:13.304Z,98026.13
2022-12-25T08:40:43.849Z,98018.50
2022-12-25T08:43:16.861Z,98015.59
2022-12-25T08:45:50.336Z,98024.69
2022-12-25T08:48:20.902Z,98023.50
2022-12-25T08:50:52.469Z,98023.34
2022-12-25T08:53:24.040Z,98019.84
2022-12-25T08:56:01.321Z,98006.00
2022-12-25T08:58:34.668Z,98011.84
2022-12-25T09:01:05.266Z,98009.50
2022-12-25T09:03:36.590Z,98002.97
2022-12-25T09:06:10.277Z,97991.97
2022-12-25T09:08:48.244Z,97988.34
2022-12-25T09:11:21.744Z,97995.16
2022-12-25T09:13:54.910Z,97982.63
2022-12-25T09:16:26.353Z,97987.22
2022-12-25T09:18:59.458Z,97982.00
2022-12-25T09:21:31.128Z,97994.50
2022-12-25T09:24:01.574Z,97994.09
2022-12-25T09:26:31.993Z,97996.03
2022-12-25T09:29:07.001Z,97989.22
2022-12-25T09:31:37.470Z,97983.41
2022-12-25T09:34:07.920Z,97990.66
2022-12-25T09:36:38.387Z,97986.16
2022-12-25T09:39:08.888Z,97983.78
2022-12-25T09:41:50.875Z,97983.22
2022-12-25T09:44:28.003Z,97983.66
2022-12-25T09:47:02.475Z,97985.91
2022-12-25T09:49:41.704Z,97988.47
2022-12-25T09:52:17.711Z,97977.25
2022-12-25T09:54:57.881Z,97967.41
2022-12-25T09:57:29.448Z,97958.31
2022-12-25T10:00:02.828Z,97952.53
2022-12-25T10:02:52.485Z,97953.38
2022-12-25T10:05:52.496Z,97966.66
2022-12-25T10:08:37.201Z,97957.84
2022-12-25T10:11:22.651Z,97958.59
2022-12-25T10:14:09.387Z,97967.03
2022-12-25T10:17:00.479Z,97958.69
2022-12-25T10:19:38.438Z,97952.66
2022-12-25T10:22:19.026Z,97951.44
2022-12-25T10:24:53.781Z,97951.19
2022-12-25T10:27:33.019Z,97935.22
2022-12-25T10:30:05.145Z,97941.03
2022-12-25T10:32:38.292Z,97961.28
2022-12-25T10:35:13.701Z,97939.72
2022-12-25T10:37:45.275Z,97954.50
2022-12-25T10:40:39.563Z,97934.41
2022-12-25T10:43:18.588Z,97931.56
2022-12-25T10:45:50.925Z,97936.50
2022-12-25T10:48:29.518Z,97936.91
2022-12-25T10:51:00.324Z,97922.09
2022-12-25T10:53:31.958Z,97913.97
2022-12-25T10:56:05.060Z,97923.56
2022-12-25T10:58:37.165Z,97914.75
2022-12-25T11:01:10.215Z,97902.50
2022-12-25T11:03:48.490Z,97912.72
2022-12-25T11:06:28.272Z,97915.63
2022-12-25T11:09:01.686Z,97898.84
2022-12-25T11:11:33.321Z,97908.31
2022-12-25T11:14:07.129Z,97893.22
2022-12-25T11:16:40.318Z,97871.63
2022-12-25T11:19:29.681Z,97878.84
2022-12-25T11:22:02.444Z,97868.03
2022-12-25T11:24:35.320Z,97867.31
2022-12-25T11:27:09.042Z,97865.44
2022-12-25T11:29:46.028Z,97865.50
2022-12-25T11:32:24.033Z,97846.34
2022-12-25T11:34:57.312Z,97841.22
2022-12-25T11:37:42.876Z,97842.16
2022-12-25T11:40:18.305Z,97843.72
2022-12-25T11:42:55.614Z,97839.53
2022-12-25T11:45:34.742Z,97829.44
2022-12-25T11:48:14.631Z,97831.63
2022-12-25T11:50:53.081Z,97841.91
2022-12-25T11:53:31.593Z,97830.72
2022-12-25T11:56:06.160Z,97840.31
2022-12-25T11:58:41.631Z,97835.41
2022-12-25T12:01:22.422Z,97830.41
2022-12-25T12:03:53.017Z,97821.25
2022-12-25T12:06:36.109Z,97816.19
2022-12-25T12:09:25.775Z,97805.41
2022-12-25T12:12:04.596Z,97786.41
2022-12-25T12:14:50.950Z,97784.03
2022-12-25T12:17:22.420Z,97776.78
2022-12-25T12:19:52.876Z,97774.66
2022-12-25T12:22:30.549Z,97770.56
2022-12-25T12:25:07.757Z,97767.97
2022-12-25T12:27:41.355Z,97752.78
2022-12-25T12:30:28.845Z,97730.13
2022-12-25T12:33:02.244Z,97738.72
2022-12-25T12:35:36.801Z,97729.75
2022-12-25T12:38:17.526Z,97721.53
2022-12-25T12:40:56.769Z,97713.34
2022-12-25T12:43:35.128Z,97726.88
2022-12-25T12:46:11.208Z,97732.91
2022-12-25T12:48:48.505Z,97726.81
2022-12-25T12:51:32.854Z,97748.47
2022-12-25T12:54:23.116Z,97760.47
2022-12-25T12:57:02.139Z,97761.03
2022-12-25T12:59:43.642Z,97781.81
2022-12-25T13:02:48.500Z,97781.34
2022-12-25T13:05:33.963Z,97782.09
2022-12-25T13:08:17.994Z,97786.50
2022-12-25T13:10:53.774Z,97774.88
2022-12-25T13:13:29.012Z,97774.47
2022-12-25T13:15:59.655Z,97787.19
2022-12-25T13:18:30.856Z,97778.16
2022-12-25T13:21:05.336Z,97770.47
2022-12-25T13:23:39.178Z,97763.44
2022-12-25T13:26:18.609Z,97768.06
2022-12-25T13:28:50.224Z,97754.66
2022-12-25T13:31:25.737Z,97762.34
2022-12-25T13:34:02.578Z,97756.97
2022-12-25T13:36:40.332Z,97761.09
2022-12-25T13:39:12.926Z,97770.97
2022-12-25T13:42:02.317Z,97750.56
2022-12-25T13:44:44.640Z,97756.72
2022-12-25T13:47:26.697Z,97752.59
2022-12-25T13:50:01.130Z,97735.47
2022-12-25T13:52:37.291Z,97729.91
2022-12-25T13:55:16.008Z,97731.56
2022-12-25T13:57:54.053Z,97718.38
2022-12-25T14:00:28.582Z,97708.06
2022-12-25T14:02:59.511Z,97676.97
2022-12-25T14:05:37.888Z,97665.78
2022-12-25T14:08:18.963Z,97667.63
2022-12-25T14:10:53.723Z,97680.88
2022-12-25T14:13:30.505Z,97679.16
2022-12-25T14:16:01.359Z,97687.56
2022-12-25T14:18:33.155Z,97670.94
2022-12-25T14:21:06.828Z,97682.03
2022-12-25T14:23:44.929Z,97679.91
2022-12-25T14:26:19.627Z,97678.41
2022-12-25T14:28:55.831Z,97677.63
2022-12-25T14:31:27.669Z,97672.28
2022-12-25T14:33:58.592Z,97670.19
2022-12-25T14:36:29.815Z,97679.47
2022-12-25T14:39:02.143Z,97683.66
2022-12-25T14:41:38.441Z,97683.22
2022-12-25T14:44:36.892Z,97683.75
2022-12-25T14:47:17.725Z,97688.34
2022-12-25T14:49:49.719Z,97686.44
2022-12-25T14:52:25.327Z,97681.75
2022-12-25T14:55:00.475Z,97687.97
2022-12-25T14:57:35.496Z,97684.63
2022-12-25T15:00:24.873Z,97675.25
2022-12-25T15:02:58.278Z,97666.94
2022-12-25T15:05:35.961Z,97675.34
2022-12-25T15:08:24.797Z,97670.13
2022-12-25T15:11:00.447Z,97667.91
2022-12-25T15:13:34.410Z,97669.44
2022-12-25T15:16:15.313Z,97668.00
2022-12-25T15:18:48.633Z,97668.78
2022-12-25T15:21:24.417Z,97670.78
2022-12-25T15:23:56.174Z,97663.69
2022-12-25T15:26:27.454Z,97660.75
2022-12-25T15:28:57.945Z,97671.00
2022-12-25T15:31:33.330Z,97655.31
2022-12-25T15:34:07.178Z,97648.03
2022-12-25T15:36:37.572Z,97645.84
2022-12-25T15:39:08.177Z,97645.72
2022-12-25T15:41:53.996Z,97637.91
2022-12-25T15:44:25.323Z,97632.53
2022-12-25T15:46:58.381Z,97635.13
2022-12-25T15:49:28.757Z,97628.16
2022-12-25T15:51:59.203Z,97626.81
2022-12-25T15:54:29.614Z,97618.78
2022-12-25T15:57:04.081Z,97620.34
2022-12-25T15:59:34.893Z,97623.41
2022-12-25T16:02:19.741Z,97628.72
2022-12-25T16:04:51.272Z,97626.25
2022-12-25T16:07:25.171Z,97629.97
2022-12-25T16:09:55.668Z,97624.16
2022-12-25T16:12:26.182Z,97621.44
2022-12-25T16:14:56.626Z,97625.28
2022-12-25T16:17:29.752Z,97606.28
2022-12-25T16:20:00.168Z,97600.72
2022-12-25T16:22:31.977Z,97613.44
2022-12-25T16:25:02.348Z,97604.16
2022-12-25T16:27:32.841Z,97609.69
2022-12-25T16:30:04.349Z,97609.25
2022-12-25T16:32:37.361Z,97595.81
2022-12-25T16:35:09.279Z,97593.56
2022-12-25T16:37:40.928Z,97590.13
2022-12-25T16:40:13.262Z,97583.63
2022-12-25T16:42:43.848Z,97578.84
2022-12-25T16:45:15.238Z,97576.53
2022-12-25T16:47:48.433Z,97573.75
2022-12-25T16:50:19.407Z,97578.91
2022-12-25T16:52:49.456Z,97583.22
2022-12-25T16:55:25.017Z,97584.19
2022-12-25T16:57:58.251Z,97571.38
2022-12-25T17:00:29.196Z,97582.84
2022-12-25T17:03:03.247Z,97579.03
2022-12-25T17:05:35.956Z,97584.84
2022-12-25T17:08:06.525Z,97563.19
2022-12-25T17:10:37.165Z,97544.53
2022-12-25T17:13:07.628Z,97546.34
2022-12-25T17:15:38.100Z,97534.97
2022-12-25T17:18:11.274Z,97527.22
2022-12-25T17:20:41.736Z,97520.91
2022-12-25T17:23:12.115Z,97526.72
2022-12-25T17:25:42.528Z,97534.31
2022-12-25T17:28:12.993Z,97524.25
2022-12-25T17:30:43.462Z,97521.75
2022-12-25T17:33:16.531Z,97519.75
2022-12-25T17:35:47.024Z,97532.06
2022-12-25T17:38:17.391Z,97524.31
2022-12-25T17:40:47.839Z,97522.78
2022-12-25T17:43:20.994Z,97526.59
2022-12-25T17:45:51.795Z,97514.81
2022-12-25T17:48:24.990Z,97516.66
2022-12-25T17:50:55.365Z,97518.66
2022-12-25T17:53:25.808Z,97505.34
2022-12-25T17:56:00.265Z,97516.22
2022-12-25T17:58:32.388Z,97510.72
2022-12-25T18:01:09.222Z,97508.25
2022-12-25T18:03:42.663Z,97515.59
2022-12-25T18:06:19.137Z,97524.41
2022-12-25T18:08:50.306Z,97515.88
2022-12-25T18:11:24.655Z,97517.88
2022-12-25T18:13:55.385Z,97512.56
2022-12-25T18:16:28.448Z,97505.25
2022-12-25T18:19:02.105Z,97499.22
2022-12-25T18:21:33.304Z,97510.06
2022-12-25T18:24:05.283Z,97503.75
2022-12-25T18:26:36.004Z,97494.66
2022-12-25T18:29:07.073Z,97503.25
2022-12-25T18:31:37.434Z,97499.50
2022-12-25T18:34:10.476Z,97506.09
2022-12-25T18:36:40.896Z,97512.69
2022-12-25T18:39:11.331Z,97510.44
2022-12-25T18:42:02.964Z,97498.66
2022-12-25T18:44:33.824Z,97498.75
2022-12-25T18:47:04.358Z,97494.63
2022-12-25T18:49:38.486Z,97505.72
2022-12-25T18:52:47.756Z,97503.25
2022-12-25T18:54:59.499Z,97519.19
2022-12-25T18:57:32.163Z,97512.16
2022-12-25T19:00:03.183Z,97503.34
2022-12-25T19:02:33.337Z,97507.19
2022-12-25T19:05:06.973Z,97514.31
2022-12-25T19:07:37.431Z,97514.56
2022-12-25T19:10:10.337Z,97503.75
2022-12-25T19:12:40.816Z,97513.09
2022-12-25T19:15:13.672Z,97509.38
2022-12-25T19:17:44.203Z,97504.56
2022-12-25T19:20:17.605Z,97495.00
2022-12-25T19:22:48.053Z,97490.47
2022-12-25T19:25:18.849Z,97500.28
2022-12-25T19:27:49.225Z,97509.91
2022-12-25T19:30:19.741Z,97506.91
2022-12-25T19:32:50.255Z,97505.16
2022-12-25T19:35:23.290Z,97497.38
2022-12-25T19:37:53.684Z,97489.84
2022-12-25T19:40:24.077Z,97496.19
2022-12-25T19:42:54.452Z,97492.72
2022-12-25T19:45:24.861Z,97492.72
2022-12-25T19:47:56.133Z,97486.44
2022-12-25T19:50:30.844Z,97489.97
2022-12-25T19:53:01.862Z,97484.97
2022-12-25T19:55:35.555Z,97488.50
2022-12-25T19:58:06.053Z,97483.91
2022-12-25T20:00:36.395Z,97476.81
2022-12-25T20:03:07.303Z,97473.56
2022-12-25T20:05:40.263Z,97473.56
2022-12-25T20:08:10.665Z,97476.34
2022-12-25T20:10:47.403Z,97479.94
2022-12-25T20:13:18.227Z,97478.91
2022-12-25T20:15:49.513Z,97490.09
2022-12-25T20:18:20.404Z,97480.75
2022-12-25T20:21:01.485Z,97484.31
2022-12-25T20:23:31.664Z,97484.03
2022-12-25T20:26:04.907Z,97486.03
2022-12-25T20:28:37.938Z,97484.03
2022-12-25T20:31:09.863Z,97482.81
2022-12-25T20:33:40.461Z,97476.00
2022-12-25T20:36:14.335Z,97472.22
2022-12-25T20:38:45.039Z,97476.00
2022-12-25T20:41:27.349Z,97477.81
2022-12-25T20:43:58.901Z,97481.03
2022-12-25T20:46:30.928Z,97486.03
2022-12-25T20:49:01.160Z,97481.03
2022-12-25T20:51:34.278Z,97477.22
2022-12-25T20:54:10.358Z,97473.28
2022-12-25T20:56:40.794Z,97469.78
2022-12-25T20:59:13.116Z,97465.75
2022-12-25T21:01:45.687Z,97465.03
2022-12-25T21:04:17.013Z,97472.38
2022-12-25T21:06:50.071Z,97460.03
2022-12-25T21:09:20.585Z,97466.81
2022-12-25T21:11:50.950Z,97471.38
2022-12-25T21:14:21.355Z,97468.06
2022-12-25T21:16:51.912Z,97480.25
2022-12-25T21:19:22.417Z,97479.25
2022-12-25T21:21:55.658Z,97465.09
2022-12-25T21:24:26.019Z,97472.91
2022-12-25T21:26:56.365Z,97463.03
2022-12-25T21:29:26.760Z,97466.81
2022-12-25T21:32:09.763Z,97472.31
2022-12-25T21:34:40.478Z,97482.88
2022-12-25T21:37:14.833Z,97485.41
2022-12-25T21:39:45.246Z,97486.38
2022-12-25T21:42:15.707Z,97491.16
2022-12-25T21:44:46.236Z,97482.34
2022-12-25T21:47:16.647Z,97495.94
2022-12-25T21:49:59.401Z,97487.09
2022-12-25T21:52:32.863Z,97492.38
2022-12-25T21:55:03.217Z,97486.59
2022-12-25T21:57:33.614Z,97483.53
2022-12-25T22:00:05.148Z,97485.84
2022-12-25T22:02:36.574Z,97478.00
2022-12-25T22:05:08.222Z,97481.25
2022-12-25T22:07:38.692Z,97480.50
2022-12-25T22:10:11.384Z,97490.28
2022-12-25T22:12:54.181Z,97491.81
2022-12-25T22:15:24.567Z,97487.84
2022-12-25T22:18:07.276Z,97473.97
2022-12-25T22:20:41.852Z,97481.25
2022-12-25T22:23:16.403Z,97476.66
2022-12-25T22:25:46.855Z,97477.63
2022-12-25T22:28:17.630Z,97485.22
2022-12-25T22:30:47.991Z,97487.72
2022-12-25T22:33:20.524Z,97477.09
2022-12-25T22:35:50.932Z,97490.72
2022-12-25T22:38:24.031Z,97482.47
2022-12-25T22:40:54.384Z,97467.81
2022-12-25T22:43:43.288Z,97464.03
2022-12-25T22:46:15.111Z,97468.88
2022-12-25T22:48:45.470Z,97459.03
2022-12-25T22:51:15.982Z,97456.25
2022-12-25T22:53:50.097Z,97468.06
2022-12-25T22:56:20.719Z,97472.34
2022-12-25T22:58:51.187Z,97478.91
2022-12-25T23:01:21.727Z,97478.91
2022-12-25T23:03:56.545Z,97478.34
2022-12-25T23:06:26.984Z,97477.56
2022-12-25T23:09:00.129Z,97475.34
2022-12-25T23:11:30.710Z,97492.19
2022-12-25T23:14:22.571Z,97489.69
2022-12-25T23:16:56.406Z,97487.88
2022-12-25T23:19:39.380Z,97494.50
2022-12-25T23:22:24.055Z,97485.13
2022-12-25T23:25:09.557Z,97486.91
2022-12-25T23:27:40.050Z,97481.59
2022-12-25T23:30:09.401Z,97484.63
2022-12-25T23:32:40.556Z,97465.91
2022-12-25T23:35:12.049Z,97468.63
2022-12-25T23:37:42.466Z,97482.25
2022-12-25T23:40:16.155Z,97470.66
2022-12-25T23:42:46.544Z,97462.59
2022-12-25T23:45:17.256Z,97470.16
2022-12-25T23:47:47.718Z,97474.25
2022-12-25T23:50:18.280Z,97474.72
2022-12-25T23:52:48.678Z,97477.25
2022-12-25T23:55:21.715Z,97459.81
2022-12-25T23:57:52.173Z,97446.44
